@Sonygps/ver3.0/wgs-84/ $GPGGA,203136.000,3744.7659,N,12227.0612,W,1,0,,179.0,M,,M,,*4C $GPRMC,203136.000,A,3744.7659,N,12227.0612,W,0.000,0.00,010612,,A*69 $GPGGA,203151.000,3744.7702,N,12227.0580,W,1,0,,178.0,M,,M,,*4B $GPRMC,203151.000,A,3744.7702,N,12227.0580,W,0.000,0.00,010612,,A*6F $GPGGA,203206.000,3744.7700,N,12227.0506,W,1,0,,178.0,M,,M,,*46 $GPRMC,203206.000,A,3744.7700,N,12227.0506,W,0.000,0.00,010612,,A*62 $GPGGA,203221.000,3744.7739,N,12227.0392,W,1,0,,178.0,M,,M,,*42 $GPRMC,203221.000,A,3744.7739,N,12227.0392,W,0.000,0.00,010612,,A*66 $GPGGA,203237.000,3744.7759,N,12227.0250,W,1,0,,178.0,M,,M,,*4C $GPRMC,203237.000,A,3744.7759,N,12227.0250,W,0.000,0.00,010612,,A*68 $GPGGA,203252.000,3744.7764,N,12227.0200,W,1,0,,178.0,M,,M,,*44 $GPRMC,203252.000,A,3744.7764,N,12227.0200,W,0.000,0.00,010612,,A*60 $GPGGA,203307.000,3744.7791,N,12227.0012,W,1,0,,178.0,M,,M,,*4E $GPRMC,203307.000,A,3744.7791,N,12227.0012,W,0.000,0.00,010612,,A*6A $GPGGA,203323.000,3744.7837,N,12226.9925,W,1,0,,178.0,M,,M,,*4E $GPRMC,203323.000,A,3744.7837,N,12226.9925,W,0.000,0.00,010612,,A*6A $GPGGA,203351.000,3744.7899,N,12226.9843,W,1,0,,178.0,M,,M,,*4E $GPRMC,203351.000,A,3744.7899,N,12226.9843,W,0.000,0.00,010612,,A*6A $GPGGA,203406.000,3744.7942,N,12226.9792,W,1,0,,178.0,M,,M,,*4F $GPRMC,203406.000,A,3744.7942,N,12226.9792,W,0.000,0.00,010612,,A*6B $GPGGA,203422.000,3744.8011,N,12226.9563,W,1,0,,178.0,M,,M,,*45 $GPRMC,203422.000,A,3744.8011,N,12226.9563,W,0.000,0.00,010612,,A*61 $GPGGA,203438.000,3744.8043,N,12226.9449,W,1,0,,178.0,M,,M,,*40 $GPRMC,203438.000,A,3744.8043,N,12226.9449,W,0.000,0.00,010612,,A*64 $GPGGA,203454.000,3744.8185,N,12226.9362,W,1,0,,178.0,M,,M,,*4F $GPRMC,203454.000,A,3744.8185,N,12226.9362,W,0.000,0.00,010612,,A*6B $GPGGA,203510.000,3744.8309,N,12226.9408,W,1,0,,178.0,M,,M,,*43 $GPRMC,203510.000,A,3744.8309,N,12226.9408,W,0.000,0.00,010612,,A*67 $GPGGA,203525.000,3744.8338,N,12226.9362,W,1,0,,178.0,M,,M,,*4C $GPRMC,203525.000,A,3744.8338,N,12226.9362,W,0.000,0.00,010612,,A*68 $GPGGA,203540.000,3744.8373,N,12226.9353,W,1,0,,178.0,M,,M,,*42 $GPRMC,203540.000,A,3744.8373,N,12226.9353,W,0.000,0.00,010612,,A*66 $GPGGA,203555.000,3744.8448,N,12226.9289,W,1,0,,178.0,M,,M,,*4F $GPRMC,203555.000,A,3744.8448,N,12226.9289,W,0.000,0.00,010612,,A*6B $GPGGA,203610.000,3744.8618,N,12226.9257,W,1,0,,178.0,M,,M,,*49 $GPRMC,203610.000,A,3744.8618,N,12226.9257,W,0.000,0.00,010612,,A*6D $GPGGA,203626.000,3744.8620,N,12226.9174,W,1,0,,178.0,M,,M,,*45 $GPRMC,203626.000,A,3744.8620,N,12226.9174,W,0.000,0.00,010612,,A*61 $GPGGA,203641.000,3744.8647,N,12226.9147,W,1,0,,178.0,M,,M,,*45 $GPRMC,203641.000,A,3744.8647,N,12226.9147,W,0.000,0.00,010612,,A*61 $GPGGA,203656.000,3744.8725,N,12226.9238,W,1,0,,181.0,M,,M,,*4B $GPRMC,203656.000,A,3744.8725,N,12226.9238,W,0.000,0.00,010612,,A*69 $GPGGA,203711.000,3744.8700,N,12226.9275,W,1,0,,179.0,M,,M,,*40 $GPRMC,203711.000,A,3744.8700,N,12226.9275,W,0.000,0.00,010612,,A*65 $GPGGA,203726.000,3744.8741,N,12226.9247,W,1,0,,179.0,M,,M,,*40 $GPRMC,203726.000,A,3744.8741,N,12226.9247,W,0.000,0.00,010612,,A*65 $GPGGA,203741.000,3744.8819,N,12226.9229,W,1,0,,178.0,M,,M,,*4A $GPRMC,203741.000,A,3744.8819,N,12226.9229,W,0.000,0.00,010612,,A*6E $GPGGA,203756.000,3744.8876,N,12226.9193,W,1,0,,178.0,M,,M,,*47 $GPRMC,203756.000,A,3744.8876,N,12226.9193,W,0.000,0.00,010612,,A*63 $GPGGA,203811.000,3744.8947,N,12226.9142,W,1,0,,178.0,M,,M,,*44 $GPRMC,203811.000,A,3744.8947,N,12226.9142,W,0.000,0.00,010612,,A*60 $GPGGA,203826.000,3744.8995,N,12226.9087,W,1,0,,179.0,M,,M,,*46 $GPRMC,203826.000,A,3744.8995,N,12226.9087,W,0.000,0.00,010612,,A*63 $GPGGA,203841.000,3744.9027,N,12226.9073,W,1,0,,180.0,M,,M,,*4B $GPRMC,203841.000,A,3744.9027,N,12226.9073,W,0.000,0.00,010612,,A*68 $GPGGA,203856.000,3744.9036,N,12226.9092,W,1,0,,181.0,M,,M,,*43 $GPRMC,203856.000,A,3744.9036,N,12226.9092,W,0.000,0.00,010612,,A*61 $GPGGA,203911.000,3744.9057,N,12226.9106,W,1,0,,181.0,M,,M,,*4A $GPRMC,203911.000,A,3744.9057,N,12226.9106,W,0.000,0.00,010612,,A*68 $GPGGA,203926.000,3744.9105,N,12226.9087,W,1,0,,181.0,M,,M,,*40 $GPRMC,203926.000,A,3744.9105,N,12226.9087,W,0.000,0.00,010612,,A*62 $GPGGA,203941.000,3744.9130,N,12226.9092,W,1,0,,181.0,M,,M,,*43 $GPRMC,203941.000,A,3744.9130,N,12226.9092,W,0.000,0.00,010612,,A*61 $GPGGA,203956.000,3744.9217,N,12226.8991,W,1,0,,182.0,M,,M,,*4B $GPRMC,203956.000,A,3744.9217,N,12226.8991,W,0.000,0.00,010612,,A*6A $GPGGA,204014.000,3744.9252,N,12226.8987,W,1,0,,182.0,M,,M,,*45 $GPRMC,204014.000,A,3744.9252,N,12226.8987,W,0.000,0.00,010612,,A*64 $GPGGA,204029.000,3744.9311,N,12226.8867,W,1,0,,182.0,M,,M,,*42 $GPRMC,204029.000,A,3744.9311,N,12226.8867,W,0.000,0.00,010612,,A*63 $GPGGA,204045.000,3744.9398,N,12226.8845,W,1,0,,182.0,M,,M,,*49 $GPRMC,204045.000,A,3744.9398,N,12226.8845,W,0.000,0.00,010612,,A*68 $GPGGA,204100.000,3744.9485,N,12226.8826,W,1,0,,182.0,M,,M,,*47 $GPRMC,204100.000,A,3744.9485,N,12226.8826,W,0.000,0.00,010612,,A*66 $GPGGA,204115.000,3744.9570,N,12226.8753,W,1,0,,183.0,M,,M,,*44 $GPRMC,204115.000,A,3744.9570,N,12226.8753,W,0.000,0.00,010612,,A*64 $GPGGA,204138.000,3744.9625,N,12226.8776,W,1,0,,185.0,M,,M,,*49 $GPRMC,204138.000,A,3744.9625,N,12226.8776,W,0.000,0.00,010612,,A*6F $GPGGA,204153.000,3744.9702,N,12226.8625,W,1,0,,185.0,M,,M,,*47 $GPRMC,204153.000,A,3744.9702,N,12226.8625,W,0.000,0.00,010612,,A*61 $GPGGA,204211.000,3744.9744,N,12226.8593,W,1,0,,185.0,M,,M,,*4E $GPRMC,204211.000,A,3744.9744,N,12226.8593,W,0.000,0.00,010612,,A*68 $GPGGA,204226.000,3744.9771,N,12226.8588,W,1,0,,185.0,M,,M,,*46 $GPRMC,204226.000,A,3744.9771,N,12226.8588,W,0.000,0.00,010612,,A*60 $GPGGA,204242.000,3744.9840,N,12226.8497,W,1,0,,185.0,M,,M,,*46 $GPRMC,204242.000,A,3744.9840,N,12226.8497,W,0.000,0.00,010612,,A*60 $GPGGA,204257.000,3744.9856,N,12226.8442,W,1,0,,185.0,M,,M,,*4D $GPRMC,204257.000,A,3744.9856,N,12226.8442,W,0.000,0.00,010612,,A*6B $GPGGA,204313.000,3744.9915,N,12226.8336,W,1,0,,185.0,M,,M,,*4E $GPRMC,204313.000,A,3744.9915,N,12226.8336,W,0.000,0.00,010612,,A*68 $GPGGA,204328.000,3744.9881,N,12226.8350,W,1,0,,185.0,M,,M,,*4A $GPRMC,204328.000,A,3744.9881,N,12226.8350,W,0.000,0.00,010612,,A*6C $GPGGA,204343.000,3744.9902,N,12226.8309,W,1,0,,185.0,M,,M,,*41 $GPRMC,204343.000,A,3744.9902,N,12226.8309,W,0.000,0.00,010612,,A*67 $GPGGA,204358.000,3744.9968,N,12226.8172,W,1,0,,185.0,M,,M,,*49 $GPRMC,204358.000,A,3744.9968,N,12226.8172,W,0.000,0.00,010612,,A*6F $GPGGA,204413.000,3744.9982,N,12226.8176,W,1,0,,194.0,M,,M,,*41 $GPRMC,204413.000,A,3744.9982,N,12226.8176,W,0.000,0.00,010612,,A*67 $GPGGA,204428.000,3744.9973,N,12226.8199,W,1,0,,187.0,M,,M,,*44 $GPRMC,204428.000,A,3744.9973,N,12226.8199,W,0.000,0.00,010612,,A*60 $GPGGA,204443.000,3744.9982,N,12226.8204,W,1,0,,186.0,M,,M,,*41 $GPRMC,204443.000,A,3744.9982,N,12226.8204,W,0.000,0.00,010612,,A*64 $GPGGA,204458.000,3744.9979,N,12226.8208,W,1,0,,186.0,M,,M,,*43 $GPRMC,204458.000,A,3744.9979,N,12226.8208,W,0.000,0.00,010612,,A*66 $GPGGA,204513.000,3744.9982,N,12226.8208,W,1,0,,186.0,M,,M,,*49 $GPRMC,204513.000,A,3744.9982,N,12226.8208,W,0.000,0.00,010612,,A*6C $GPGGA,204528.000,3744.9982,N,12226.8208,W,1,0,,186.0,M,,M,,*41 $GPRMC,204528.000,A,3744.9982,N,12226.8208,W,0.000,0.00,010612,,A*64 $GPGGA,204543.000,3744.9982,N,12226.8208,W,1,0,,186.0,M,,M,,*4C $GPRMC,204543.000,A,3744.9982,N,12226.8208,W,0.000,0.00,010612,,A*69 $GPGGA,204558.000,3744.9982,N,12226.8208,W,1,0,,186.0,M,,M,,*46 $GPRMC,204558.000,A,3744.9982,N,12226.8208,W,0.000,0.00,010612,,A*63 $GPGGA,204620.000,3744.9881,N,12226.8263,W,1,0,,186.0,M,,M,,*45 $GPRMC,204620.000,A,3744.9881,N,12226.8263,W,0.000,0.00,010612,,A*60 $GPGGA,204636.000,3745.0085,N,12226.8277,W,1,0,,186.0,M,,M,,*43 $GPRMC,204636.000,A,3745.0085,N,12226.8277,W,0.000,0.00,010612,,A*66 $GPGGA,204652.000,3745.0142,N,12226.8341,W,1,0,,187.0,M,,M,,*4E $GPRMC,204652.000,A,3745.0142,N,12226.8341,W,0.000,0.00,010612,,A*6A $GPGGA,204708.000,3745.0165,N,12226.8382,W,1,0,,187.0,M,,M,,*4A $GPRMC,204708.000,A,3745.0165,N,12226.8382,W,0.000,0.00,010612,,A*6E $GPGGA,204723.000,3745.0172,N,12226.8405,W,1,0,,187.0,M,,M,,*4D $GPRMC,204723.000,A,3745.0172,N,12226.8405,W,0.000,0.00,010612,,A*69 $GPGGA,204738.000,3745.0229,N,12226.8460,W,1,0,,187.0,M,,M,,*49 $GPRMC,204738.000,A,3745.0229,N,12226.8460,W,0.000,0.00,010612,,A*6D $GPGGA,204753.000,3745.0245,N,12226.8460,W,1,0,,188.0,M,,M,,*41 $GPRMC,204753.000,A,3745.0245,N,12226.8460,W,0.000,0.00,010612,,A*6A $GPGGA,204809.000,3745.0311,N,12226.8529,W,1,0,,188.0,M,,M,,*4D $GPRMC,204809.000,A,3745.0311,N,12226.8529,W,0.000,0.00,010612,,A*66 $GPGGA,204825.000,3745.0252,N,12226.8533,W,1,0,,189.0,M,,M,,*4F $GPRMC,204825.000,A,3745.0252,N,12226.8533,W,0.000,0.00,010612,,A*65 $GPGGA,204840.000,3745.0293,N,12226.8538,W,1,0,,189.0,M,,M,,*4A $GPRMC,204840.000,A,3745.0293,N,12226.8538,W,0.000,0.00,010612,,A*60 $GPGGA,204855.000,3745.0355,N,12226.8565,W,1,0,,190.0,M,,M,,*45 $GPRMC,204855.000,A,3745.0355,N,12226.8565,W,0.000,0.00,010612,,A*67 $GPGGA,204910.000,3745.0412,N,12226.8611,W,1,0,,190.0,M,,M,,*41 $GPRMC,204910.000,A,3745.0412,N,12226.8611,W,0.000,0.00,010612,,A*63 $GPGGA,204927.000,3745.0478,N,12226.8785,W,1,0,,190.0,M,,M,,*45 $GPRMC,204927.000,A,3745.0478,N,12226.8785,W,0.000,0.00,010612,,A*67 $GPGGA,204943.000,3745.0522,N,12226.8909,W,1,0,,190.0,M,,M,,*43 $GPRMC,204943.000,A,3745.0522,N,12226.8909,W,0.000,0.00,010612,,A*61 $GPGGA,204958.000,3745.0488,N,12226.8982,W,1,0,,190.0,M,,M,,*4B $GPRMC,204958.000,A,3745.0488,N,12226.8982,W,0.000,0.00,010612,,A*69 $GPGGA,205013.000,3745.0508,N,12226.9005,W,1,0,,190.0,M,,M,,*42 $GPRMC,205013.000,A,3745.0508,N,12226.9005,W,0.000,0.00,010612,,A*60 $GPGGA,205028.000,3745.0517,N,12226.8973,W,1,0,,191.0,M,,M,,*4C $GPRMC,205028.000,A,3745.0517,N,12226.8973,W,0.000,0.00,010612,,A*6F $GPGGA,205043.000,3745.0522,N,12226.9014,W,1,0,,191.0,M,,M,,*4E $GPRMC,205043.000,A,3745.0522,N,12226.9014,W,0.000,0.00,010612,,A*6D $GPGGA,205058.000,3745.0515,N,12226.9041,W,1,0,,191.0,M,,M,,*40 $GPRMC,205058.000,A,3745.0515,N,12226.9041,W,0.000,0.00,010612,,A*63 $GPGGA,205113.000,3745.0591,N,12226.9092,W,1,0,,191.0,M,,M,,*4C $GPRMC,205113.000,A,3745.0591,N,12226.9092,W,0.000,0.00,010612,,A*6F $GPGGA,205128.000,3745.0602,N,12226.9115,W,1,0,,192.0,M,,M,,*40 $GPRMC,205128.000,A,3745.0602,N,12226.9115,W,0.000,0.00,010612,,A*60 $GPGGA,205143.000,3745.0595,N,12226.9119,W,1,0,,192.0,M,,M,,*4C $GPRMC,205143.000,A,3745.0595,N,12226.9119,W,0.000,0.00,010612,,A*6C $GPGGA,205158.000,3745.0591,N,12226.9124,W,1,0,,192.0,M,,M,,*4C $GPRMC,205158.000,A,3745.0591,N,12226.9124,W,0.000,0.00,010612,,A*6C $GPGGA,205213.000,3745.0602,N,12226.9138,W,1,0,,195.0,M,,M,,*43 $GPRMC,205213.000,A,3745.0602,N,12226.9138,W,0.000,0.00,010612,,A*64 $GPGGA,205228.000,3745.0661,N,12226.9142,W,1,0,,197.0,M,,M,,*41 $GPRMC,205228.000,A,3745.0661,N,12226.9142,W,0.000,0.00,010612,,A*64 $GPGGA,205243.000,3745.0726,N,12226.9142,W,1,0,,198.0,M,,M,,*41 $GPRMC,205243.000,A,3745.0726,N,12226.9142,W,0.000,0.00,010612,,A*6B $GPGGA,205258.000,3745.0794,N,12226.9101,W,1,0,,198.0,M,,M,,*45 $GPRMC,205258.000,A,3745.0794,N,12226.9101,W,0.000,0.00,010612,,A*6F $GPGGA,205313.000,3745.0861,N,12226.9087,W,1,0,,198.0,M,,M,,*41 $GPRMC,205313.000,A,3745.0861,N,12226.9087,W,0.000,0.00,010612,,A*6B $GPGGA,205329.000,3745.0948,N,12226.9055,W,1,0,,198.0,M,,M,,*4D $GPRMC,205329.000,A,3745.0948,N,12226.9055,W,0.000,0.00,010612,,A*67 $GPGGA,205345.000,3745.1087,N,12226.9009,W,1,0,,198.0,M,,M,,*45 $GPRMC,205345.000,A,3745.1087,N,12226.9009,W,0.000,0.00,010612,,A*6F $GPGGA,205401.000,3745.1124,N,12226.8996,W,1,0,,198.0,M,,M,,*44 $GPRMC,205401.000,A,3745.1124,N,12226.8996,W,0.000,0.00,010612,,A*6E $GPGGA,205416.000,3745.1181,N,12226.8927,W,1,0,,199.0,M,,M,,*46 $GPRMC,205416.000,A,3745.1181,N,12226.8927,W,0.000,0.00,010612,,A*6D $GPGGA,205431.000,3745.1238,N,12226.8794,W,1,0,,199.0,M,,M,,*44 $GPRMC,205431.000,A,3745.1238,N,12226.8794,W,0.000,0.00,010612,,A*6F $GPGGA,205446.000,3745.1257,N,12226.8785,W,1,0,,199.0,M,,M,,*4D $GPRMC,205446.000,A,3745.1257,N,12226.8785,W,0.000,0.00,010612,,A*66 $GPGGA,205501.000,3745.1245,N,12226.8831,W,1,0,,199.0,M,,M,,*4C $GPRMC,205501.000,A,3745.1245,N,12226.8831,W,0.000,0.00,010612,,A*67 $GPGGA,205520.000,3745.1286,N,12226.8790,W,1,0,,199.0,M,,M,,*44 $GPRMC,205520.000,A,3745.1286,N,12226.8790,W,0.000,0.00,010612,,A*6F $GPGGA,205536.000,3745.1348,N,12226.8762,W,1,0,,200.0,M,,M,,*4E $GPRMC,205536.000,A,3745.1348,N,12226.8762,W,0.000,0.00,010612,,A*66 $GPGGA,205553.000,3745.1389,N,12226.8675,W,1,0,,200.0,M,,M,,*47 $GPRMC,205553.000,A,3745.1389,N,12226.8675,W,0.000,0.00,010612,,A*6F $GPGGA,205608.000,3745.1460,N,12226.8643,W,1,0,,200.0,M,,M,,*4F $GPRMC,205608.000,A,3745.1460,N,12226.8643,W,0.000,0.00,010612,,A*67 $GPGGA,205623.000,3745.1563,N,12226.8684,W,1,0,,200.0,M,,M,,*4F $GPRMC,205623.000,A,3745.1563,N,12226.8684,W,0.000,0.00,010612,,A*67 $GPGGA,205638.000,3745.1643,N,12226.8712,W,1,0,,201.0,M,,M,,*4B $GPRMC,205638.000,A,3745.1643,N,12226.8712,W,0.000,0.00,010612,,A*62 $GPGGA,205654.000,3745.1769,N,12226.8785,W,1,0,,201.0,M,,M,,*46 $GPRMC,205654.000,A,3745.1769,N,12226.8785,W,0.000,0.00,010612,,A*6F $GPGGA,205709.000,3745.1868,N,12226.8748,W,1,0,,201.0,M,,M,,*40 $GPRMC,205709.000,A,3745.1868,N,12226.8748,W,0.000,0.00,010612,,A*69 $GPGGA,205724.000,3745.1941,N,12226.8863,W,1,0,,201.0,M,,M,,*43 $GPRMC,205724.000,A,3745.1941,N,12226.8863,W,0.000,0.00,010612,,A*6A $GPGGA,205739.000,3745.1998,N,12226.8932,W,1,0,,201.0,M,,M,,*4E $GPRMC,205739.000,A,3745.1998,N,12226.8932,W,0.000,0.00,010612,,A*67 $GPGGA,205754.000,3745.2115,N,12226.8849,W,1,0,,212.0,M,,M,,*44 $GPRMC,205754.000,A,3745.2115,N,12226.8849,W,0.000,0.00,010612,,A*6F $GPGGA,205819.000,3745.2133,N,12226.8886,W,1,0,,202.0,M,,M,,*44 $GPRMC,205819.000,A,3745.2133,N,12226.8886,W,0.000,0.00,010612,,A*6E $GPGGA,205835.000,3745.2172,N,12226.8835,W,1,0,,202.0,M,,M,,*47 $GPRMC,205835.000,A,3745.2172,N,12226.8835,W,0.000,0.00,010612,,A*6D $GPGGA,205851.000,3745.2222,N,12226.8835,W,1,0,,202.0,M,,M,,*43 $GPRMC,205851.000,A,3745.2222,N,12226.8835,W,0.000,0.00,010612,,A*69 $GPGGA,205907.000,3745.2273,N,12226.8767,W,1,0,,202.0,M,,M,,*4D $GPRMC,205907.000,A,3745.2273,N,12226.8767,W,0.000,0.00,010612,,A*67 $GPGGA,205935.000,3745.2369,N,12226.8602,W,1,0,,202.0,M,,M,,*44 $GPRMC,205935.000,A,3745.2369,N,12226.8602,W,0.000,0.00,010612,,A*6E $GPGGA,205950.000,3745.2339,N,12226.8520,W,1,0,,202.0,M,,M,,*41 $GPRMC,205950.000,A,3745.2339,N,12226.8520,W,0.000,0.00,010612,,A*6B $GPGGA,210006.000,3745.2428,N,12226.8391,W,1,0,,202.0,M,,M,,*44 $GPRMC,210006.000,A,3745.2428,N,12226.8391,W,0.000,0.00,010612,,A*6E $GPGGA,210021.000,3745.2493,N,12226.8231,W,1,0,,202.0,M,,M,,*4A $GPRMC,210021.000,A,3745.2493,N,12226.8231,W,0.000,0.00,010612,,A*60 $GPGGA,210036.000,3745.2541,N,12226.8076,W,1,0,,202.0,M,,M,,*43 $GPRMC,210036.000,A,3745.2541,N,12226.8076,W,0.000,0.00,010612,,A*69 $GPGGA,210054.000,3745.2634,N,12226.8130,W,1,0,,202.0,M,,M,,*45 $GPRMC,210054.000,A,3745.2634,N,12226.8130,W,0.000,0.00,010612,,A*6F $GPGGA,210109.000,3745.2646,N,12226.7934,W,1,0,,203.0,M,,M,,*4B $GPRMC,210109.000,A,3745.2646,N,12226.7934,W,0.000,0.00,010612,,A*60 $GPGGA,210124.000,3745.2724,N,12226.7819,W,1,0,,203.0,M,,M,,*4F $GPRMC,210124.000,A,3745.2724,N,12226.7819,W,0.000,0.00,010612,,A*64 $GPGGA,210139.000,3745.2758,N,12226.7746,W,1,0,,208.0,M,,M,,*46 $GPRMC,210139.000,A,3745.2758,N,12226.7746,W,0.000,0.00,010612,,A*66 $GPGGA,210154.000,3745.2756,N,12226.7755,W,1,0,,205.0,M,,M,,*4C $GPRMC,210154.000,A,3745.2756,N,12226.7755,W,0.000,0.00,010612,,A*61 $GPGGA,210209.000,3745.2760,N,12226.7755,W,1,0,,205.0,M,,M,,*42 $GPRMC,210209.000,A,3745.2760,N,12226.7755,W,0.000,0.00,010612,,A*6F $GPGGA,210224.000,3745.2763,N,12226.7755,W,1,0,,204.0,M,,M,,*4F $GPRMC,210224.000,A,3745.2763,N,12226.7755,W,0.000,0.00,010612,,A*63 $GPGGA,210239.000,3745.2760,N,12226.7755,W,1,0,,204.0,M,,M,,*40 $GPRMC,210239.000,A,3745.2760,N,12226.7755,W,0.000,0.00,010612,,A*6C $GPGGA,210254.000,3745.2758,N,12226.7751,W,1,0,,205.0,M,,M,,*45 $GPRMC,210254.000,A,3745.2758,N,12226.7751,W,0.000,0.00,010612,,A*68 $GPGGA,210309.000,3745.2753,N,12226.7755,W,1,0,,205.0,M,,M,,*43 $GPRMC,210309.000,A,3745.2753,N,12226.7755,W,0.000,0.00,010612,,A*6E $GPGGA,210324.000,3745.2758,N,12226.7764,W,1,0,,205.0,M,,M,,*45 $GPRMC,210324.000,A,3745.2758,N,12226.7764,W,0.000,0.00,010612,,A*68 $GPGGA,210349.000,3745.2758,N,12226.7805,W,1,0,,206.0,M,,M,,*45 $GPRMC,210349.000,A,3745.2758,N,12226.7805,W,0.000,0.00,010612,,A*6B $GPGGA,210406.000,3745.2836,N,12226.7851,W,1,0,,206.0,M,,M,,*4F $GPRMC,210406.000,A,3745.2836,N,12226.7851,W,0.000,0.00,010612,,A*61 $GPGGA,210421.000,3745.2902,N,12226.7888,W,1,0,,206.0,M,,M,,*48 $GPRMC,210421.000,A,3745.2902,N,12226.7888,W,0.000,0.00,010612,,A*66 $GPGGA,210436.000,3745.2937,N,12226.8030,W,1,0,,206.0,M,,M,,*4C $GPRMC,210436.000,A,3745.2937,N,12226.8030,W,0.000,0.00,010612,,A*62 $GPGGA,210451.000,3745.2934,N,12226.8240,W,1,0,,215.0,M,,M,,*49 $GPRMC,210451.000,A,3745.2934,N,12226.8240,W,0.000,0.00,010612,,A*65 $GPGGA,210506.000,3745.2950,N,12226.8149,W,1,0,,209.0,M,,M,,*4F $GPRMC,210506.000,A,3745.2950,N,12226.8149,W,0.000,0.00,010612,,A*6E $GPGGA,210521.000,3745.2957,N,12226.8153,W,1,0,,208.0,M,,M,,*47 $GPRMC,210521.000,A,3745.2957,N,12226.8153,W,0.000,0.00,010612,,A*67 $GPGGA,210536.000,3745.2964,N,12226.8140,W,1,0,,208.0,M,,M,,*43 $GPRMC,210536.000,A,3745.2964,N,12226.8140,W,0.000,0.00,010612,,A*63 $GPGGA,210557.000,3745.2982,N,12226.8204,W,1,0,,207.0,M,,M,,*40 $GPRMC,210557.000,A,3745.2982,N,12226.8204,W,0.000,0.00,010612,,A*6F $GPGGA,210612.000,3745.3042,N,12226.8254,W,1,0,,207.0,M,,M,,*43 $GPRMC,210612.000,A,3745.3042,N,12226.8254,W,0.000,0.00,010612,,A*6C $GPGGA,210628.000,3745.3056,N,12226.8323,W,1,0,,207.0,M,,M,,*4E $GPRMC,210628.000,A,3745.3056,N,12226.8323,W,0.000,0.00,010612,,A*61 $GPGGA,210644.000,3745.3001,N,12226.8428,W,1,0,,207.0,M,,M,,*4A $GPRMC,210644.000,A,3745.3001,N,12226.8428,W,0.000,0.00,010612,,A*65 $GPGGA,210659.000,3745.2957,N,12226.8387,W,1,0,,208.0,M,,M,,*40 $GPRMC,210659.000,A,3745.2957,N,12226.8387,W,0.000,0.00,010612,,A*60 $GPGGA,210714.000,3745.2866,N,12226.8359,W,1,0,,208.0,M,,M,,*48 $GPRMC,210714.000,A,3745.2866,N,12226.8359,W,0.000,0.00,010612,,A*68 $GPGGA,210730.000,3745.2687,N,12226.8300,W,1,0,,208.0,M,,M,,*43 $GPRMC,210730.000,A,3745.2687,N,12226.8300,W,0.000,0.00,010612,,A*63 $GPGGA,210745.000,3745.2639,N,12226.8295,W,1,0,,208.0,M,,M,,*49 $GPRMC,210745.000,A,3745.2639,N,12226.8295,W,0.000,0.00,010612,,A*69 $GPGGA,210800.000,3745.2600,N,12226.8250,W,1,0,,208.0,M,,M,,*44 $GPRMC,210800.000,A,3745.2600,N,12226.8250,W,0.000,0.00,010612,,A*64 $GPGGA,210815.000,3745.2509,N,12226.8199,W,1,0,,208.0,M,,M,,*4C $GPRMC,210815.000,A,3745.2509,N,12226.8199,W,0.000,0.00,010612,,A*6C $GPGGA,210831.000,3745.2408,N,12226.8135,W,1,0,,208.0,M,,M,,*4C $GPRMC,210831.000,A,3745.2408,N,12226.8135,W,0.000,0.00,010612,,A*6C $GPGGA,210847.000,3745.2332,N,12226.8098,W,1,0,,208.0,M,,M,,*45 $GPRMC,210847.000,A,3745.2332,N,12226.8098,W,0.000,0.00,010612,,A*65 $GPGGA,210903.000,3745.2266,N,12226.8034,W,1,0,,208.0,M,,M,,*42 $GPRMC,210903.000,A,3745.2266,N,12226.8034,W,0.000,0.00,010612,,A*62 $GPGGA,210919.000,3745.2184,N,12226.8011,W,1,0,,208.0,M,,M,,*41 $GPRMC,210919.000,A,3745.2184,N,12226.8011,W,0.000,0.00,010612,,A*61 $GPGGA,210934.000,3745.2065,N,12226.7979,W,1,0,,208.0,M,,M,,*48 $GPRMC,210934.000,A,3745.2065,N,12226.7979,W,0.000,0.00,010612,,A*68 $GPGGA,210949.000,3745.2019,N,12226.8002,W,1,0,,208.0,M,,M,,*43 $GPRMC,210949.000,A,3745.2019,N,12226.8002,W,0.000,0.00,010612,,A*63 $GPGGA,211004.000,3745.1962,N,12226.8071,W,1,0,,208.0,M,,M,,*40 $GPRMC,211004.000,A,3745.1962,N,12226.8071,W,0.000,0.00,010612,,A*60 $GPGGA,211020.000,3745.1916,N,12226.8080,W,1,0,,208.0,M,,M,,*4B $GPRMC,211020.000,A,3745.1916,N,12226.8080,W,0.000,0.00,010612,,A*6B $GPGGA,211035.000,3745.1815,N,12226.8236,W,1,0,,208.0,M,,M,,*42 $GPRMC,211035.000,A,3745.1815,N,12226.8236,W,0.000,0.00,010612,,A*62 $GPGGA,211050.000,3745.1717,N,12226.8272,W,1,0,,208.0,M,,M,,*4C $GPRMC,211050.000,A,3745.1717,N,12226.8272,W,0.000,0.00,010612,,A*6C $GPGGA,211105.000,3745.1698,N,12226.8323,W,1,0,,208.0,M,,M,,*4E $GPRMC,211105.000,A,3745.1698,N,12226.8323,W,0.000,0.00,010612,,A*6E $GPGGA,211121.000,3745.1641,N,12226.8350,W,1,0,,209.0,M,,M,,*49 $GPRMC,211121.000,A,3745.1641,N,12226.8350,W,0.000,0.00,010612,,A*68 $GPGGA,211136.000,3745.1524,N,12226.8460,W,1,0,,209.0,M,,M,,*4B $GPRMC,211136.000,A,3745.1524,N,12226.8460,W,0.000,0.00,010612,,A*6A $GPGGA,211151.000,3745.1469,N,12226.8373,W,1,0,,213.0,M,,M,,*4C $GPRMC,211151.000,A,3745.1469,N,12226.8373,W,0.000,0.00,010612,,A*66 $GPGGA,211206.000,3745.1451,N,12226.8378,W,1,0,,209.0,M,,M,,*46 $GPRMC,211206.000,A,3745.1451,N,12226.8378,W,0.000,0.00,010612,,A*67 $GPGGA,211221.000,3745.1376,N,12226.8355,W,1,0,,208.0,M,,M,,*4F $GPRMC,211221.000,A,3745.1376,N,12226.8355,W,0.000,0.00,010612,,A*6F $GPGGA,211236.000,3745.1344,N,12226.8336,W,1,0,,209.0,M,,M,,*4C $GPRMC,211236.000,A,3745.1344,N,12226.8336,W,0.000,0.00,010612,,A*6D $GPGGA,211251.000,3745.1311,N,12226.8318,W,1,0,,209.0,M,,M,,*41 $GPRMC,211251.000,A,3745.1311,N,12226.8318,W,0.000,0.00,010612,,A*60 $GPGGA,211306.000,3745.1314,N,12226.8323,W,1,0,,209.0,M,,M,,*4F $GPRMC,211306.000,A,3745.1314,N,12226.8323,W,0.000,0.00,010612,,A*6E $GPGGA,211321.000,3745.1316,N,12226.8323,W,1,0,,209.0,M,,M,,*48 $GPRMC,211321.000,A,3745.1316,N,12226.8323,W,0.000,0.00,010612,,A*69 $GPGGA,211336.000,3745.1321,N,12226.8332,W,1,0,,209.0,M,,M,,*4A $GPRMC,211336.000,A,3745.1321,N,12226.8332,W,0.000,0.00,010612,,A*6B $GPGGA,211351.000,3745.1328,N,12226.8332,W,1,0,,209.0,M,,M,,*42 $GPRMC,211351.000,A,3745.1328,N,12226.8332,W,0.000,0.00,010612,,A*63 $GPGGA,211406.000,3745.1323,N,12226.8336,W,1,0,,209.0,M,,M,,*48 $GPRMC,211406.000,A,3745.1323,N,12226.8336,W,0.000,0.00,010612,,A*69 $GPGGA,211421.000,3745.1323,N,12226.8332,W,1,0,,210.0,M,,M,,*41 $GPRMC,211421.000,A,3745.1323,N,12226.8332,W,0.000,0.00,010612,,A*68 $GPGGA,211436.000,3745.1321,N,12226.8327,W,1,0,,210.0,M,,M,,*41 $GPRMC,211436.000,A,3745.1321,N,12226.8327,W,0.000,0.00,010612,,A*68 $GPGGA,211451.000,3745.1311,N,12226.8332,W,1,0,,210.0,M,,M,,*47 $GPRMC,211451.000,A,3745.1311,N,12226.8332,W,0.000,0.00,010612,,A*6E $GPGGA,211506.000,3745.1309,N,12226.8332,W,1,0,,211.0,M,,M,,*4C $GPRMC,211506.000,A,3745.1309,N,12226.8332,W,0.000,0.00,010612,,A*64 $GPGGA,211521.000,3745.1321,N,12226.8332,W,2,0,,213.0,M,,M,,*42 $GPRMC,211521.000,A,3745.1321,N,12226.8332,W,0.000,0.00,010612,,D*6E $GPGGA,211536.000,3745.1279,N,12226.8318,W,2,0,,217.0,M,,M,,*44 $GPRMC,211536.000,A,3745.1279,N,12226.8318,W,0.000,0.00,010612,,D*6C $GPGGA,211551.000,3745.1282,N,12226.8318,W,2,0,,220.0,M,,M,,*45 $GPRMC,211551.000,A,3745.1282,N,12226.8318,W,0.000,0.00,010612,,D*69 $GPGGA,211606.000,3745.1293,N,12226.8314,W,2,0,,222.0,M,,M,,*4A $GPRMC,211606.000,A,3745.1293,N,12226.8314,W,0.000,0.00,010612,,D*64 $GPGGA,211621.000,3745.1300,N,12226.8323,W,2,0,,222.0,M,,M,,*40 $GPRMC,211621.000,A,3745.1300,N,12226.8323,W,0.000,0.00,010612,,D*6E $GPGGA,211636.000,3745.1307,N,12226.8327,W,2,0,,222.0,M,,M,,*45 $GPRMC,211636.000,A,3745.1307,N,12226.8327,W,0.000,0.00,010612,,D*6B $GPGGA,211651.000,3745.1307,N,12226.8327,W,2,0,,222.0,M,,M,,*44 $GPRMC,211651.000,A,3745.1307,N,12226.8327,W,0.000,0.00,010612,,D*6A $GPGGA,211706.000,3745.1305,N,12226.8332,W,2,0,,222.0,M,,M,,*41 $GPRMC,211706.000,A,3745.1305,N,12226.8332,W,0.000,0.00,010612,,D*6F $GPGGA,211721.000,3745.1305,N,12226.8336,W,2,0,,222.0,M,,M,,*40 $GPRMC,211721.000,A,3745.1305,N,12226.8336,W,0.000,0.00,010612,,D*6E $GPGGA,211736.000,3745.1305,N,12226.8332,W,2,0,,222.0,M,,M,,*42 $GPRMC,211736.000,A,3745.1305,N,12226.8332,W,0.000,0.00,010612,,D*6C $GPGGA,211751.000,3745.1259,N,12226.8304,W,2,0,,223.0,M,,M,,*4F $GPRMC,211751.000,A,3745.1259,N,12226.8304,W,0.000,0.00,010612,,D*60 $GPGGA,211807.000,3745.1188,N,12226.8254,W,1,0,,239.0,M,,M,,*40 $GPRMC,211807.000,A,3745.1188,N,12226.8254,W,0.000,0.00,010612,,A*62 $GPGGA,211822.000,3745.1176,N,12226.8217,W,1,0,,226.0,M,,M,,*4F $GPRMC,211822.000,A,3745.1176,N,12226.8217,W,0.000,0.00,010612,,A*63 $GPGGA,211838.000,3745.1138,N,12226.8190,W,1,0,,226.0,M,,M,,*42 $GPRMC,211838.000,A,3745.1138,N,12226.8190,W,0.000,0.00,010612,,A*6E $GPGGA,211853.000,3745.1071,N,12226.8199,W,1,0,,226.0,M,,M,,*4A $GPRMC,211853.000,A,3745.1071,N,12226.8199,W,0.000,0.00,010612,,A*66 $GPGGA,211908.000,3745.1021,N,12226.8181,W,1,0,,226.0,M,,M,,*49 $GPRMC,211908.000,A,3745.1021,N,12226.8181,W,0.000,0.00,010612,,A*65 $GPGGA,211924.000,3745.0897,N,12226.8245,W,1,0,,226.0,M,,M,,*48 $GPRMC,211924.000,A,3745.0897,N,12226.8245,W,0.000,0.00,010612,,A*64 $GPGGA,211939.000,3745.0856,N,12226.8309,W,1,0,,226.0,M,,M,,*40 $GPRMC,211939.000,A,3745.0856,N,12226.8309,W,0.000,0.00,010612,,A*6C $GPGGA,211954.000,3745.0833,N,12226.8300,W,1,0,,226.0,M,,M,,*41 $GPRMC,211954.000,A,3745.0833,N,12226.8300,W,0.000,0.00,010612,,A*6D $GPGGA,212009.000,3745.0833,N,12226.8304,W,1,0,,226.0,M,,M,,*47 $GPRMC,212009.000,A,3745.0833,N,12226.8304,W,0.000,0.00,010612,,A*6B $GPGGA,212024.000,3745.0831,N,12226.8304,W,1,0,,226.0,M,,M,,*4A $GPRMC,212024.000,A,3745.0831,N,12226.8304,W,0.000,0.00,010612,,A*66 $GPGGA,212039.000,3745.0835,N,12226.8300,W,1,0,,226.0,M,,M,,*46 $GPRMC,212039.000,A,3745.0835,N,12226.8300,W,0.000,0.00,010612,,A*6A $GPGGA,212054.000,3745.0833,N,12226.8295,W,1,0,,226.0,M,,M,,*46 $GPRMC,212054.000,A,3745.0833,N,12226.8295,W,0.000,0.00,010612,,A*6A